createdAt,value
2023-02-23T00:01:42.338Z,95862.97
2023-02-23T00:04:11.512Z,95858.63
2023-02-23T00:06:39.974Z,95862.34
2023-02-23T00:09:13.805Z,95866.59
2023-02-23T00:11:42.320Z,95869.00
2023-02-23T00:14:10.370Z,95865.47
2023-02-23T00:16:38.240Z,95866.19
2023-02-23T00:19:08.110Z,95863.19
2023-02-23T00:21:37.609Z,95866.41
2023-02-23T00:24:08.307Z,95863.72
2023-02-23T00:26:38.353Z,95859.66
2023-02-23T00:29:09.253Z,95859.16
2023-02-23T00:31:38.595Z,95866.31
2023-02-23T00:34:07.544Z,95862.03
2023-02-23T00:36:38.782Z,95859.78
2023-02-23T00:39:18.502Z,95862.88
2023-02-23T00:41:46.487Z,95858.47
2023-02-23T00:44:15.313Z,95856.78
2023-02-23T00:46:44.409Z,95861.66
2023-02-23T00:49:13.651Z,95860.06
2023-02-23T00:51:43.694Z,95862.22
2023-02-23T00:54:14.158Z,95860.44
2023-02-23T00:56:41.994Z,95866.50
2023-02-23T00:59:09.799Z,95863.25
2023-02-23T01:01:38.535Z,95863.47
2023-02-23T01:04:07.317Z,95865.28
2023-02-23T01:06:37.490Z,95870.72
2023-02-23T01:09:10.031Z,95865.63
2023-02-23T01:11:41.318Z,95860.47
2023-02-23T01:14:10.916Z,95860.47
2023-02-23T01:16:38.931Z,95861.66
2023-02-23T01:19:07.890Z,95862.44
2023-02-23T01:21:37.439Z,95862.44
2023-02-23T01:24:06.171Z,95861.09
2023-02-23T01:26:39.741Z,95861.22
2023-02-23T01:29:09.434Z,95860.06
2023-02-23T01:31:39.177Z,95863.25
2023-02-23T01:34:07.575Z,95850.34
2023-02-23T01:36:36.728Z,95857.53
2023-02-23T01:39:07.617Z,95852.44
2023-02-23T01:41:37.881Z,95850.84
2023-02-23T01:44:07.537Z,95856.50
2023-02-23T01:46:39.026Z,95843.97
2023-02-23T01:49:09.939Z,95854.63
2023-02-23T01:51:42.934Z,95848.16
2023-02-23T01:54:15.879Z,95847.59
2023-02-23T01:56:49.279Z,95841.91
2023-02-23T01:59:18.841Z,95837.91
2023-02-23T02:01:48.141Z,95835.31
2023-02-23T02:04:19.514Z,95832.94
2023-02-23T02:06:53.592Z,95830.03
2023-02-23T02:09:27.430Z,95835.94
2023-02-23T02:11:56.538Z,95839.09
2023-02-23T02:14:28.377Z,95828.94
2023-02-23T02:17:20.870Z,95831.94
2023-02-23T02:20:26.500Z,95827.97
2023-02-23T02:23:15.686Z,95830.13
2023-02-23T02:25:57.771Z,95818.13
2023-02-23T02:28:40.300Z,95825.34
2023-02-23T02:31:47.237Z,95820.72
2023-02-23T02:34:59.188Z,95826.00
2023-02-23T02:37:47.654Z,95828.91
2023-02-23T02:40:25.858Z,95821.81
2023-02-23T02:43:08.208Z,95823.44
2023-02-23T02:45:44.497Z,95821.81
2023-02-23T02:48:19.312Z,95811.97
2023-02-23T02:50:55.496Z,95823.59
2023-02-23T02:53:31.704Z,95812.44
2023-02-23T02:56:05.666Z,95816.72
2023-02-23T02:58:38.957Z,95821.19
2023-02-23T03:01:31.099Z,95814.38
2023-02-23T03:04:18.385Z,95811.63
2023-02-23T03:07:08.304Z,95819.88
2023-02-23T03:10:01.279Z,95821.16
2023-02-23T03:12:57.651Z,95814.69
2023-02-23T03:15:58.568Z,95814.63
2023-02-23T03:19:04.956Z,95802.22
2023-02-23T03:21:54.581Z,95818.84
2023-02-23T03:24:51.370Z,95819.06
2023-02-23T03:27:42.847Z,95819.84
2023-02-23T03:30:37.197Z,95814.19
2023-02-23T03:33:29.874Z,95816.56
2023-02-23T03:36:21.463Z,95819.44
2023-02-23T03:39:15.917Z,95816.78
2023-02-23T03:42:03.105Z,95821.84
2023-02-23T03:44:53.015Z,95821.56
2023-02-23T03:47:42.437Z,95833.66
2023-02-23T03:50:36.772Z,95830.19
2023-02-23T03:53:23.808Z,95836.34
2023-02-23T03:56:13.383Z,95838.53
2023-02-23T03:59:05.030Z,95828.09
2023-02-23T04:01:52.981Z,95836.97
2023-02-23T04:04:40.614Z,95835.66
2023-02-23T04:07:27.706Z,95838.81
2023-02-23T04:10:13.316Z,95833.75
2023-02-23T04:13:05.672Z,95828.69
2023-02-23T04:15:36.477Z,95833.28
2023-02-23T04:18:07.587Z,95825.22
2023-02-23T04:20:35.480Z,95830.59
2023-02-23T04:23:03.248Z,95832.75
2023-02-23T04:25:32.273Z,95843.22
2023-02-23T04:28:00.117Z,95834.66
2023-02-23T04:30:28.507Z,95836.53
2023-02-23T04:32:56.712Z,95827.38
2023-02-23T04:35:27.793Z,95833.28
2023-02-23T04:37:55.674Z,95831.16
2023-02-23T04:40:24.441Z,95834.84
2023-02-23T04:42:52.269Z,95837.53
2023-02-23T04:45:20.482Z,95841.81
2023-02-23T04:47:48.260Z,95837.25
2023-02-23T04:50:16.379Z,95839.13
2023-02-23T04:52:45.589Z,95841.81
2023-02-23T04:55:18.501Z,95831.06
2023-02-23T04:57:46.491Z,95837.53
2023-02-23T05:00:15.351Z,95831.06
2023-02-23T05:02:43.282Z,95830.78
2023-02-23T05:05:11.183Z,95832.97
2023-02-23T05:07:39.200Z,95835.34
2023-02-23T05:10:09.970Z,95829.50
2023-02-23T05:12:37.874Z,95835.16
2023-02-23T05:15:06.622Z,95832.47
2023-02-23T05:17:34.357Z,95834.06
2023-02-23T05:20:02.073Z,95833.28
2023-02-23T05:22:29.769Z,95825.50
2023-02-23T05:24:57.687Z,95838.91
2023-02-23T05:27:26.796Z,95832.75
2023-02-23T05:29:54.524Z,95832.19
2023-02-23T05:32:22.372Z,95830.78
2023-02-23T05:34:50.127Z,95833.97
2023-02-23T05:37:18.025Z,95832.09
2023-02-23T05:39:47.100Z,95832.88
2023-02-23T05:42:14.859Z,95831.28
2023-02-23T05:44:44.006Z,95831.28
2023-02-23T05:47:11.817Z,95831.28
2023-02-23T05:49:39.635Z,95833.47
2023-02-23T05:52:07.460Z,95833.75
2023-02-23T05:54:35.263Z,95841.50
2023-02-23T05:57:03.051Z,95836.97
2023-02-23T05:59:31.134Z,95841.81
2023-02-23T06:02:00.270Z,95845.06
2023-02-23T06:04:28.010Z,95845.69
2023-02-23T06:06:55.718Z,95838.91
2023-02-23T06:09:23.440Z,95839.91
2023-02-23T06:11:51.472Z,95845.00
2023-02-23T06:14:19.289Z,95847.09
2023-02-23T06:16:48.749Z,95848.19
2023-02-23T06:19:18.000Z,95844.19
2023-02-23T06:21:46.685Z,95856.81
2023-02-23T06:24:14.465Z,95843.41
2023-02-23T06:26:44.378Z,95855.44
2023-02-23T06:29:13.543Z,95859.72
2023-02-23T06:31:41.364Z,95859.41
2023-02-23T06:34:09.738Z,95854.88
2023-02-23T06:36:38.904Z,95860.72
2023-02-23T06:39:06.611Z,95863.63
2023-02-23T06:41:35.659Z,95865.22
2023-02-23T06:44:03.454Z,95865.41
2023-02-23T06:46:33.142Z,95869.38
2023-02-23T06:49:01.117Z,95872.28
2023-02-23T06:51:28.858Z,95869.81
2023-02-23T06:53:57.960Z,95879.16
2023-02-23T06:56:25.743Z,95880.47
2023-02-23T06:58:53.505Z,95878.56
2023-02-23T07:01:21.555Z,95887.94
2023-02-23T07:03:49.354Z,95883.34
2023-02-23T07:06:18.125Z,95889.72
2023-02-23T07:08:46.016Z,95891.00
2023-02-23T07:11:18.203Z,95895.81
2023-02-23T07:13:46.185Z,95901.38
2023-02-23T07:16:14.842Z,95889.72
2023-02-23T07:18:42.774Z,95893.72
2023-02-23T07:21:10.538Z,95890.13
2023-02-23T07:23:38.254Z,95887.66
2023-02-23T07:26:06.334Z,95890.25
2023-02-23T07:28:35.411Z,95896.31
2023-02-23T07:31:03.347Z,95896.53
2023-02-23T07:33:32.532Z,95896.91
2023-02-23T07:36:00.472Z,95896.53
2023-02-23T07:38:28.665Z,95890.25
2023-02-23T07:40:56.547Z,95897.91
2023-02-23T07:43:24.299Z,95896.72
2023-02-23T07:45:53.526Z,95900.88
2023-02-23T07:48:22.181Z,95898.09
2023-02-23T07:50:49.940Z,95901.25
2023-02-23T07:53:17.735Z,95897.97
2023-02-23T07:55:45.713Z,95903.03
2023-02-23T07:58:14.105Z,95902.13
2023-02-23T08:00:41.977Z,95899.97
2023-02-23T08:03:11.110Z,95899.84
2023-02-23T08:05:40.068Z,95906.22
2023-02-23T08:08:07.837Z,95902.91
2023-02-23T08:10:35.596Z,95896.94
2023-02-23T08:13:03.400Z,95901.72
2023-02-23T08:15:31.445Z,95902.69
2023-02-23T08:17:59.493Z,95903.66
2023-02-23T08:20:28.694Z,95905.44
2023-02-23T08:22:57.107Z,95910.72
2023-02-23T08:25:25.187Z,95904.91
2023-02-23T08:27:53.181Z,95905.00
2023-02-23T08:30:22.307Z,95908.53
2023-02-23T08:32:50.268Z,95908.59
2023-02-23T08:35:20.056Z,95905.16
2023-02-23T08:37:49.240Z,95903.81
2023-02-23T08:40:18.309Z,95910.66
2023-02-23T08:42:46.151Z,95908.38
2023-02-23T08:45:13.931Z,95905.72
2023-02-23T08:47:41.943Z,95909.56
2023-02-23T08:50:11.846Z,95907.22
2023-02-23T08:52:40.366Z,95905.97
2023-02-23T08:55:11.664Z,95905.06
2023-02-23T08:57:39.468Z,95909.50
2023-02-23T09:00:14.060Z,95906.34
2023-02-23T09:02:42.720Z,95907.31
2023-02-23T09:05:11.281Z,95900.72
2023-02-23T09:07:40.565Z,95908.81
2023-02-23T09:10:13.221Z,95910.75
2023-02-23T09:12:40.962Z,95904.09
2023-02-23T09:15:09.932Z,95903.63
2023-02-23T09:17:38.423Z,95904.78
2023-02-23T09:20:07.257Z,95908.28
2023-02-23T09:22:36.872Z,95915.13
2023-02-23T09:25:05.698Z,95907.03
2023-02-23T09:27:34.863Z,95907.19
2023-02-23T09:30:02.702Z,95906.88
2023-02-23T09:32:30.536Z,95909.56
2023-02-23T09:34:58.377Z,95913.69
2023-02-23T09:37:26.141Z,95914.97
2023-02-23T09:39:53.977Z,95922.75
2023-02-23T09:42:32.180Z,95915.13
2023-02-23T09:45:13.225Z,95921.31
2023-02-23T09:47:51.386Z,95919.09
2023-02-23T09:50:23.557Z,95926.75
2023-02-23T09:52:57.080Z,95923.41
2023-02-23T09:55:27.922Z,95919.13
2023-02-23T09:57:59.324Z,95927.69
2023-02-23T10:00:28.633Z,95925.94
2023-02-23T10:03:18.587Z,95928.66
2023-02-23T10:05:50.532Z,95928.19
2023-02-23T10:08:34.965Z,95928.03
2023-02-23T10:11:11.304Z,95926.13
2023-02-23T10:13:48.004Z,95931.50
2023-02-23T10:16:25.017Z,95919.59
2023-02-23T10:19:01.134Z,95925.16
2023-02-23T10:21:35.237Z,95924.22
2023-02-23T10:24:06.548Z,95925.00
2023-02-23T10:26:43.969Z,95928.31
2023-02-23T10:29:23.151Z,95930.56
2023-02-23T10:31:57.145Z,95935.34
2023-02-23T10:34:27.794Z,95931.19
2023-02-23T10:37:00.472Z,95929.28
2023-02-23T10:39:29.748Z,95933.91
2023-02-23T10:41:59.472Z,95935.97
2023-02-23T10:44:29.706Z,95925.94
2023-02-23T10:47:02.628Z,95930.53
2023-02-23T10:49:40.767Z,95934.47
2023-02-23T10:52:13.549Z,95928.25
2023-02-23T10:54:47.524Z,95924.94
2023-02-23T10:57:23.250Z,95929.00
2023-02-23T11:00:08.986Z,95931.69
2023-02-23T11:02:38.228Z,95927.38
2023-02-23T11:05:07.653Z,95932.72
2023-02-23T11:07:35.525Z,95916.78
2023-02-23T11:10:26.155Z,95925.50
2023-02-23T11:12:54.147Z,95920.84
2023-02-23T11:15:46.291Z,95918.09
2023-02-23T11:18:23.602Z,95915.84
2023-02-23T11:20:52.994Z,95912.16
2023-02-23T11:23:24.575Z,95907.34
2023-02-23T11:25:56.464Z,95907.34
2023-02-23T11:28:30.181Z,95907.22
2023-02-23T11:31:02.680Z,95903.38
2023-02-23T11:33:35.948Z,95900.38
2023-02-23T11:36:28.047Z,95900.22
2023-02-23T11:39:05.401Z,95898.09
2023-02-23T11:41:35.310Z,95903.66
2023-02-23T11:44:06.193Z,95895.78
2023-02-23T11:46:37.787Z,95886.72
2023-02-23T11:49:15.708Z,95888.66
2023-02-23T11:51:49.075Z,95886.28
2023-02-23T11:54:22.729Z,95884.81
2023-02-23T11:56:54.011Z,95886.72
2023-02-23T11:59:28.371Z,95881.91
2023-02-23T12:02:00.493Z,95875.50
2023-02-23T12:04:33.494Z,95876.81
2023-02-23T12:07:25.552Z,95879.41
2023-02-23T12:10:02.223Z,95877.47
2023-02-23T12:12:32.660Z,95872.19
2023-02-23T12:15:09.422Z,95880.72
2023-02-23T12:17:45.240Z,95873.19
2023-02-23T12:20:19.450Z,95879.47
2023-02-23T12:22:52.339Z,95868.28
2023-02-23T12:25:26.914Z,95869.06
2023-02-23T12:28:16.899Z,95868.84
2023-02-23T12:30:51.924Z,95861.41
2023-02-23T12:33:24.066Z,95858.69
2023-02-23T12:35:58.097Z,95866.63
2023-02-23T12:38:33.161Z,95864.69
2023-02-23T12:41:06.027Z,95861.91
2023-02-23T12:43:40.313Z,95861.00
2023-02-23T12:46:13.514Z,95863.69
2023-02-23T12:48:51.206Z,95856.28
2023-02-23T12:51:27.420Z,95856.72
2023-02-23T12:53:55.219Z,95847.72
2023-02-23T12:56:33.918Z,95854.06
2023-02-23T12:59:15.829Z,95856.78
2023-02-23T13:01:51.111Z,95853.84
2023-02-23T13:05:03.660Z,95851.72
2023-02-23T13:07:41.887Z,95852.50
2023-02-23T13:10:21.293Z,95847.56
2023-02-23T13:13:05.242Z,95845.19
2023-02-23T13:15:47.643Z,95849.19
2023-02-23T13:18:25.317Z,95848.75
2023-02-23T13:20:58.226Z,95846.25
2023-02-23T13:23:35.570Z,95849.75
2023-02-23T13:26:16.192Z,95842.63
2023-02-23T13:28:52.038Z,95846.38
2023-02-23T13:31:26.036Z,95848.06
2023-02-23T13:33:56.154Z,95849.44
2023-02-23T13:36:24.738Z,95839.38
2023-02-23T13:39:19.353Z,95845.28
2023-02-23T13:42:09.956Z,95837.34
2023-02-23T13:44:44.869Z,95837.00
2023-02-23T13:47:34.110Z,95839.16
2023-02-23T13:50:08.698Z,95838.38
2023-02-23T13:52:40.569Z,95829.19
2023-02-23T13:55:48.754Z,95839.03
2023-02-23T13:58:20.775Z,95838.34
2023-02-23T14:00:55.732Z,95833.94
2023-02-23T14:03:28.002Z,95835.28
2023-02-23T14:06:00.561Z,95833.59
2023-02-23T14:08:35.618Z,95837.22
2023-02-23T14:11:05.993Z,95833.03
2023-02-23T14:13:35.412Z,95833.03
2023-02-23T14:16:13.620Z,95833.50
2023-02-23T14:19:13.880Z,95829.09
2023-02-23T14:21:50.821Z,95826.47
2023-02-23T14:24:21.732Z,95820.38
2023-02-23T14:27:38.521Z,95819.38
2023-02-23T14:30:25.291Z,95803.59
2023-02-23T14:32:53.788Z,95806.31
2023-02-23T14:35:44.028Z,95806.59
2023-02-23T14:38:45.753Z,95810.03
2023-02-23T14:41:15.637Z,95817.50
2023-02-23T14:43:46.617Z,95812.03
2023-02-23T14:46:20.669Z,95808.41
2023-02-23T14:48:59.644Z,95814.31
2023-02-23T14:51:37.144Z,95803.47
2023-02-23T14:54:15.508Z,95803.72
2023-02-23T14:56:48.238Z,95809.16
2023-02-23T14:59:22.001Z,95806.22
2023-02-23T15:01:52.161Z,95805.66
2023-02-23T15:04:22.577Z,95806.03
2023-02-23T15:06:53.854Z,95796.38
2023-02-23T15:09:30.534Z,95797.09
2023-02-23T15:11:59.857Z,95797.09
2023-02-23T15:14:38.813Z,95803.53
2023-02-23T15:17:07.706Z,95807.28
2023-02-23T15:19:39.259Z,95803.41
2023-02-23T15:22:07.832Z,95804.09
2023-02-23T15:24:43.155Z,95803.97
2023-02-23T15:27:37.979Z,95800.34
2023-02-23T15:30:23.283Z,95799.31
2023-02-23T15:33:01.163Z,95795.81
2023-02-23T15:35:30.701Z,95803.84
2023-02-23T15:38:13.694Z,95798.00
2023-02-23T15:40:46.777Z,95811.09
2023-02-23T15:43:14.573Z,95808.94
2023-02-23T15:45:48.696Z,95806.81
2023-02-23T15:48:20.814Z,95801.63
2023-02-23T15:50:51.043Z,95797.66
2023-02-23T15:53:28.869Z,95808.63
2023-02-23T15:56:03.025Z,95802.84
2023-02-23T15:58:33.105Z,95799.03
2023-02-23T16:01:27.086Z,95805.56
2023-02-23T16:04:09.116Z,95811.19
2023-02-23T16:06:39.618Z,95806.06
2023-02-23T16:09:20.641Z,95807.16
2023-02-23T16:11:52.256Z,95808.56
2023-02-23T16:14:21.902Z,95805.16
2023-02-23T16:17:10.953Z,95799.78
2023-02-23T16:19:41.445Z,95803.34
2023-02-23T16:22:20.681Z,95802.63
2023-02-23T16:24:54.774Z,95801.25
2023-02-23T16:27:22.599Z,95799.88
2023-02-23T16:30:00.312Z,95797.38
2023-02-23T16:32:37.900Z,95796.31
2023-02-23T16:35:15.487Z,95801.00
2023-02-23T16:38:02.109Z,95810.94
2023-02-23T16:40:30.069Z,95801.91
2023-02-23T16:42:59.407Z,95801.63
2023-02-23T16:45:29.467Z,95795.63
2023-02-23T16:48:03.128Z,95800.44
2023-02-23T16:50:33.444Z,95808.59
2023-02-23T16:53:02.124Z,95808.28
2023-02-23T16:55:30.495Z,95802.94
2023-02-23T16:58:01.282Z,95803.78
2023-02-23T17:00:31.797Z,95807.16
2023-02-23T17:03:01.474Z,95812.50
2023-02-23T17:05:30.368Z,95810.41
2023-02-23T17:07:59.028Z,95808.50
2023-02-23T17:10:31.050Z,95812.97
2023-02-23T17:13:02.396Z,95818.06
2023-02-23T17:15:33.081Z,95809.81
2023-02-23T17:18:02.325Z,95806.84
2023-02-23T17:20:30.224Z,95811.75
2023-02-23T17:22:59.468Z,95815.56
2023-02-23T17:25:28.096Z,95812.72
2023-02-23T17:27:56.875Z,95812.06
2023-02-23T17:30:25.312Z,95810.50
2023-02-23T17:32:55.658Z,95813.97
2023-02-23T17:35:25.624Z,95821.09
2023-02-23T17:37:54.267Z,95826.56
2023-02-23T17:40:28.439Z,95824.44
2023-02-23T17:42:57.373Z,95818.06
2023-02-23T17:45:26.362Z,95817.09
2023-02-23T17:47:54.266Z,95821.53
2023-02-23T17:50:24.234Z,95816.28
2023-02-23T17:52:52.526Z,95825.25
2023-02-23T17:55:22.013Z,95824.09
2023-02-23T17:57:49.913Z,95827.59
2023-02-23T18:00:19.688Z,95828.88
2023-02-23T18:02:47.443Z,95833.56
2023-02-23T18:05:16.288Z,95833.16
2023-02-23T18:07:48.265Z,95832.56
2023-02-23T18:10:16.894Z,95829.06
2023-02-23T18:12:44.759Z,95837.16
2023-02-23T18:15:12.614Z,95837.63
2023-02-23T18:17:40.408Z,95834.34
2023-02-23T18:20:08.992Z,95841.91
2023-02-23T18:22:36.732Z,95832.44
2023-02-23T18:25:06.952Z,95833.88
2023-02-23T18:27:34.833Z,95825.94
2023-02-23T18:30:02.555Z,95827.22
2023-02-23T18:32:31.435Z,95832.38
2023-02-23T18:34:59.240Z,95830.16
2023-02-23T18:37:28.789Z,95833.94
2023-02-23T18:39:59.017Z,95829.88
2023-02-23T18:42:28.586Z,95831.75
2023-02-23T18:44:56.399Z,95827.53
2023-02-23T18:47:24.259Z,95821.53
2023-02-23T18:49:53.052Z,95819.63
2023-02-23T18:52:20.808Z,95824.28
2023-02-23T18:54:48.682Z,95824.09
2023-02-23T18:57:16.390Z,95817.78
2023-02-23T18:59:46.761Z,95822.06
2023-02-23T19:02:14.496Z,95824.16
2023-02-23T19:04:42.415Z,95818.13
2023-02-23T19:07:10.235Z,95827.81
2023-02-23T19:09:40.805Z,95825.16
2023-02-23T19:12:08.867Z,95824.28
2023-02-23T19:14:48.916Z,95823.84
2023-02-23T19:17:18.898Z,95827.72
2023-02-23T19:19:46.661Z,95818.22
2023-02-23T19:22:14.405Z,95823.19
2023-02-23T19:24:42.209Z,95819.69
2023-02-23T19:27:10.974Z,95828.19
2023-02-23T19:29:38.842Z,95824.03
2023-02-23T19:32:07.022Z,95827.72
2023-02-23T19:34:36.356Z,95822.31
2023-02-23T19:37:04.251Z,95826.25
2023-02-23T19:39:32.055Z,95822.47
2023-02-23T19:41:59.786Z,95824.22
2023-02-23T19:44:27.609Z,95826.00
2023-02-23T19:46:55.443Z,95821.22
2023-02-23T19:49:23.238Z,95829.91
2023-02-23T19:51:52.903Z,95825.16
2023-02-23T19:54:21.224Z,95828.25
2023-02-23T19:56:49.825Z,95831.38
2023-02-23T19:59:17.597Z,95825.03
2023-02-23T20:01:45.842Z,95829.53
2023-02-23T20:04:13.677Z,95826.50
2023-02-23T20:06:44.623Z,95825.56
2023-02-23T20:09:14.303Z,95825.16
2023-02-23T20:11:42.528Z,95826.19
2023-02-23T20:14:12.339Z,95819.41
2023-02-23T20:16:40.233Z,95826.31
2023-02-23T20:19:08.032Z,95830.47
2023-02-23T20:21:36.696Z,95819.84
2023-02-23T20:24:05.499Z,95811.88
2023-02-23T20:26:37.245Z,95824.06
2023-02-23T20:29:10.537Z,95818.50
2023-02-23T20:31:41.878Z,95818.69
2023-02-23T20:34:11.945Z,95815.81
2023-02-23T20:36:40.116Z,95811.34
2023-02-23T20:39:09.126Z,95812.53
2023-02-23T20:41:38.336Z,95816.72
2023-02-23T20:44:06.208Z,95811.91
2023-02-23T20:46:33.992Z,95810.97
2023-02-23T20:49:03.582Z,95812.75
2023-02-23T20:51:31.363Z,95825.88
2023-02-23T20:54:02.128Z,95816.72
2023-02-23T20:56:32.118Z,95821.97
2023-02-23T20:59:01.878Z,95822.97
2023-02-23T21:01:30.242Z,95820.69
2023-02-23T21:04:00.647Z,95816.81
2023-02-23T21:06:30.583Z,95813.34
2023-02-23T21:09:03.799Z,95822.97
2023-02-23T21:11:33.291Z,95818.19
2023-02-23T21:14:02.448Z,95817.13
2023-02-23T21:16:32.642Z,95810.66
2023-02-23T21:19:05.415Z,95814.81
2023-02-23T21:21:38.700Z,95809.84
2023-02-23T21:24:06.838Z,95807.63
2023-02-23T21:26:34.730Z,95803.75
2023-02-23T21:29:04.941Z,95805.03
2023-02-23T21:31:32.958Z,95806.03
2023-02-23T21:34:00.730Z,95801.13
2023-02-23T21:36:28.601Z,95793.88
2023-02-23T21:38:56.405Z,95798.25
2023-02-23T21:41:24.150Z,95801.44
2023-02-23T21:43:53.914Z,95795.16
2023-02-23T21:46:23.745Z,95793.28
2023-02-23T21:48:51.555Z,95793.06
2023-02-23T21:51:19.815Z,95789.13
2023-02-23T21:53:47.933Z,95785.81
2023-02-23T21:56:18.572Z,95785.00
2023-02-23T21:58:49.049Z,95784.09
2023-02-23T22:01:19.795Z,95782.09
2023-02-23T22:03:49.634Z,95784.19
2023-02-23T22:06:20.499Z,95786.19
2023-02-23T22:08:50.552Z,95777.84
2023-02-23T22:11:20.720Z,95793.59
2023-02-23T22:13:50.186Z,95778.44
2023-02-23T22:16:20.199Z,95781.03
2023-02-23T22:18:50.497Z,95778.63
2023-02-23T22:21:19.116Z,95782.59
2023-02-23T22:23:47.904Z,95786.56
2023-02-23T22:26:15.706Z,95776.91
2023-02-23T22:28:43.915Z,95773.56
2023-02-23T22:31:14.789Z,95774.22
2023-02-23T22:33:44.866Z,95775.81
2023-02-23T22:36:18.243Z,95773.94
2023-02-23T22:38:46.676Z,95773.94
2023-02-23T22:41:14.760Z,95771.41
2023-02-23T22:43:45.723Z,95768.44
2023-02-23T22:46:13.998Z,95768.13
2023-02-23T22:48:45.096Z,95774.00
2023-02-23T22:51:15.921Z,95764.84
2023-02-23T22:53:44.766Z,95763.75
2023-02-23T22:56:13.851Z,95768.63
2023-02-23T22:58:42.168Z,95760.06
2023-02-23T23:01:12.241Z,95756.91
2023-02-23T23:03:41.673Z,95757.97
2023-02-23T23:06:12.828Z,95754.69
2023-02-23T23:08:43.097Z,95750.41
2023-02-23T23:11:13.028Z,95751.53
2023-02-23T23:13:44.363Z,95753.91
2023-02-23T23:16:25.575Z,95747.72
2023-02-23T23:19:02.335Z,95751.25
2023-02-23T23:21:31.932Z,95756.13
2023-02-23T23:24:05.523Z,95743.38
2023-02-23T23:26:35.448Z,95750.34
2023-02-23T23:29:05.760Z,95747.16
2023-02-23T23:31:35.399Z,95742.59
2023-02-23T23:34:06.725Z,95737.03
2023-02-23T23:36:38.085Z,95731.56
2023-02-23T23:39:07.225Z,95732.06
2023-02-23T23:41:35.584Z,95724.50
2023-02-23T23:44:05.517Z,95731.75
2023-02-23T23:46:35.482Z,95726.19
2023-02-23T23:49:06.001Z,95729.25
2023-02-23T23:51:38.970Z,95715.53
2023-02-23T23:54:09.721Z,95715.72
2023-02-23T23:56:38.305Z,95717.28
2023-02-23T23:59:08.160Z,95711.66
